createdAt,value
2022-11-19T00:02:00.126Z,7.47
2022-11-19T00:04:27.825Z,7.63
2022-11-19T00:06:55.503Z,6.45
2022-11-19T00:09:24.509Z,7.65
2022-11-19T00:12:09.702Z,7.13
2022-11-19T00:14:37.317Z,6.60
2022-11-19T00:17:04.955Z,7.90
2022-11-19T00:19:32.621Z,9.05
2022-11-19T00:22:00.285Z,11.20
2022-11-19T00:24:29.951Z,8.90
2022-11-19T00:26:57.629Z,9.00
2022-11-19T00:29:25.301Z,8.43
2022-11-19T00:31:52.926Z,6.90
2022-11-19T00:34:20.862Z,11.88
2022-11-19T00:36:48.742Z,6.53
2022-11-19T00:39:16.435Z,7.75
2022-11-19T00:41:45.432Z,9.15
2022-11-19T00:44:13.064Z,9.65
2022-11-19T00:46:40.691Z,7.50
2022-11-19T00:49:08.423Z,10.20
2022-11-19T00:51:36.632Z,9.45
2022-11-19T00:54:04.442Z,13.05
2022-11-19T00:56:32.216Z,7.80
2022-11-19T00:59:01.248Z,7.88
2022-11-19T01:01:28.968Z,9.68
2022-11-19T01:03:56.750Z,12.13
2022-11-19T01:06:26.154Z,12.50
2022-11-19T01:08:55.041Z,11.50
2022-11-19T01:11:24.978Z,12.40
2022-11-19T01:13:53.325Z,8.45
2022-11-19T01:16:25.945Z,10.20
2022-11-19T01:18:54.374Z,7.68
2022-11-19T01:21:24.755Z,8.85
2022-11-19T01:23:52.882Z,7.45
2022-11-19T01:26:20.933Z,7.28
2022-11-19T01:28:49.004Z,10.85
2022-11-19T01:31:19.254Z,9.65
2022-11-19T01:33:49.176Z,8.23
2022-11-19T01:36:18.822Z,14.13
2022-11-19T01:38:50.654Z,6.30
2022-11-19T01:41:18.829Z,7.18
2022-11-19T01:43:48.913Z,9.27
2022-11-19T01:46:18.450Z,7.68
2022-11-19T01:48:51.298Z,9.20
2022-11-19T01:51:23.882Z,6.95
2022-11-19T01:53:53.927Z,9.45
2022-11-19T01:56:23.902Z,11.15
2022-11-19T01:58:55.002Z,6.68
2022-11-19T02:01:23.477Z,8.40
2022-11-19T02:03:53.961Z,9.55
2022-11-19T02:06:22.060Z,10.63
2022-11-19T02:08:51.429Z,7.82
2022-11-19T02:11:36.910Z,9.60
2022-11-19T02:14:17.044Z,7.93
2022-11-19T02:16:53.238Z,10.93
2022-11-19T02:19:58.270Z,11.20
2022-11-19T02:22:47.404Z,7.05
2022-11-19T02:25:31.157Z,8.63
2022-11-19T02:28:21.579Z,8.27
2022-11-19T02:30:53.223Z,7.82
2022-11-19T02:33:27.067Z,10.13
2022-11-19T02:36:00.179Z,7.25
2022-11-19T02:38:35.574Z,10.07
2022-11-19T02:41:28.316Z,10.73
2022-11-19T02:44:21.929Z,6.90
2022-11-19T02:46:54.383Z,8.18
2022-11-19T02:49:25.389Z,7.75
2022-11-19T02:51:53.696Z,10.23
2022-11-19T02:54:21.750Z,9.65
2022-11-19T02:56:52.821Z,10.02
2022-11-19T02:59:44.880Z,6.75
2022-11-19T03:02:30.009Z,7.85
2022-11-19T03:04:58.326Z,8.38
2022-11-19T03:07:26.199Z,8.80
2022-11-19T03:09:56.693Z,6.78
2022-11-19T03:12:39.927Z,6.75
2022-11-19T03:15:41.475Z,7.68
2022-11-19T03:18:15.494Z,8.02
2022-11-19T03:20:49.834Z,8.80
2022-11-19T03:23:24.069Z,8.13
2022-11-19T03:25:56.722Z,7.18
2022-11-19T03:28:29.682Z,7.15
2022-11-19T03:31:00.232Z,5.85
2022-11-19T03:33:33.336Z,8.57
2022-11-19T03:36:05.270Z,8.38
2022-11-19T03:38:38.222Z,5.38
2022-11-19T03:41:08.215Z,7.07
2022-11-19T03:43:40.354Z,6.45
2022-11-19T03:46:15.246Z,8.65
2022-11-19T03:48:46.181Z,8.52
2022-11-19T03:51:18.023Z,9.07
2022-11-19T03:53:45.813Z,12.27
2022-11-19T03:56:18.860Z,8.57
2022-11-19T03:58:49.272Z,11.85
2022-11-19T04:01:17.086Z,9.90
2022-11-19T04:04:06.288Z,10.77
2022-11-19T04:06:33.991Z,11.32
2022-11-19T04:09:01.934Z,12.57
2022-11-19T04:11:29.585Z,12.35
2022-11-19T04:13:57.292Z,13.13
2022-11-19T04:16:25.051Z,11.70
2022-11-19T04:18:54.129Z,13.85
2022-11-19T04:21:21.803Z,13.68
2022-11-19T04:23:49.782Z,10.50
2022-11-19T04:26:17.467Z,11.57
2022-11-19T04:28:45.153Z,11.40
2022-11-19T04:31:17.658Z,11.65
2022-11-19T04:33:45.932Z,8.55
2022-11-19T04:36:14.990Z,8.13
2022-11-19T04:38:42.600Z,9.75
2022-11-19T04:41:11.003Z,9.68
2022-11-19T04:43:38.879Z,10.00
2022-11-19T04:46:06.917Z,10.85
2022-11-19T04:48:34.664Z,12.20
2022-11-19T04:51:02.281Z,11.57
2022-11-19T04:53:31.278Z,8.57
2022-11-19T04:55:59.386Z,11.48
2022-11-19T04:58:27.220Z,9.57
2022-11-19T05:00:54.822Z,8.93
2022-11-19T05:03:22.472Z,8.57
2022-11-19T05:05:50.218Z,8.23
2022-11-19T05:08:17.886Z,10.85
2022-11-19T05:10:46.941Z,9.18
2022-11-19T05:13:14.615Z,9.43
2022-11-19T05:15:42.597Z,9.23
2022-11-19T05:18:10.180Z,8.93
2022-11-19T05:20:37.876Z,9.82
2022-11-19T05:23:05.580Z,8.18
2022-11-19T05:25:33.320Z,9.32
2022-11-19T05:28:02.309Z,7.85
2022-11-19T05:30:30.487Z,8.88
2022-11-19T05:32:58.179Z,9.40
2022-11-19T05:35:25.854Z,9.88
2022-11-19T05:37:53.480Z,9.65
2022-11-19T05:40:21.201Z,8.65
2022-11-19T05:42:49.002Z,10.68
2022-11-19T05:45:18.103Z,10.82
2022-11-19T05:47:48.571Z,10.52
2022-11-19T05:50:16.618Z,13.55
2022-11-19T05:52:44.361Z,11.10
2022-11-19T05:55:11.962Z,11.88
2022-11-19T05:57:39.547Z,9.50
2022-11-19T06:00:08.312Z,16.50
2022-11-19T06:02:41.392Z,10.25
2022-11-19T06:05:10.501Z,9.45
2022-11-19T06:07:38.752Z,8.70
2022-11-19T06:10:07.243Z,11.65
2022-11-19T06:12:34.899Z,9.57
2022-11-19T06:15:03.067Z,11.63
2022-11-19T06:17:30.857Z,8.48
2022-11-19T06:20:00.292Z,8.88
2022-11-19T06:22:27.909Z,9.05
2022-11-19T06:24:55.736Z,10.20
2022-11-19T06:27:23.759Z,9.10
2022-11-19T06:29:56.089Z,10.55
2022-11-19T06:32:24.180Z,8.50
2022-11-19T06:34:52.307Z,9.20
2022-11-19T06:37:21.549Z,8.20
2022-11-19T06:39:49.234Z,7.93
2022-11-19T06:42:34.419Z,10.13
2022-11-19T06:45:02.350Z,6.10
2022-11-19T06:47:31.104Z,7.40
2022-11-19T06:49:58.801Z,8.60
2022-11-19T06:52:27.833Z,6.82
2022-11-19T06:54:55.627Z,5.03
2022-11-19T06:57:23.482Z,5.93
2022-11-19T06:59:51.135Z,6.75
2022-11-19T07:02:21.608Z,8.05
2022-11-19T07:04:49.683Z,5.20
2022-11-19T07:07:17.377Z,5.65
2022-11-19T07:09:46.482Z,4.93
2022-11-19T07:12:14.281Z,5.40
2022-11-19T07:14:41.869Z,5.38
2022-11-19T07:17:11.046Z,6.18
2022-11-19T07:19:39.093Z,6.53
2022-11-19T07:22:07.200Z,6.93
2022-11-19T07:24:35.733Z,10.70
2022-11-19T07:27:04.887Z,10.48
2022-11-19T07:29:32.707Z,9.27
2022-11-19T07:32:00.358Z,13.07
2022-11-19T07:34:28.094Z,10.18
2022-11-19T07:36:55.798Z,10.18
2022-11-19T07:39:23.678Z,8.77
2022-11-19T07:42:09.026Z,11.47
2022-11-19T07:44:42.200Z,14.82
2022-11-19T07:47:09.961Z,10.03
2022-11-19T07:49:37.963Z,8.63
2022-11-19T07:52:05.888Z,8.23
2022-11-19T07:54:33.628Z,8.27
2022-11-19T07:57:01.205Z,11.47
2022-11-19T07:59:29.162Z,10.27
2022-11-19T08:01:58.180Z,10.43
2022-11-19T08:04:28.306Z,10.40
2022-11-19T08:06:56.230Z,9.60
2022-11-19T08:09:24.364Z,12.13
2022-11-19T08:11:52.066Z,10.33
2022-11-19T08:14:19.810Z,10.93
2022-11-19T08:17:05.387Z,11.03
2022-11-19T08:19:34.483Z,11.10
2022-11-19T08:22:02.119Z,12.48
2022-11-19T08:24:29.889Z,10.33
2022-11-19T08:26:57.597Z,12.30
2022-11-19T08:29:25.368Z,11.67
2022-11-19T08:31:53.144Z,11.10
2022-11-19T08:34:22.208Z,14.37
2022-11-19T08:36:51.592Z,13.67
2022-11-19T08:39:19.266Z,15.23
2022-11-19T08:42:04.448Z,14.17
2022-11-19T08:44:32.054Z,14.17
2022-11-19T08:46:59.668Z,13.50
2022-11-19T08:49:27.364Z,12.77
2022-11-19T08:51:57.562Z,16.03
2022-11-19T08:54:25.304Z,14.43
2022-11-19T08:56:53.014Z,15.67
2022-11-19T08:59:21.772Z,16.13
2022-11-19T09:01:49.856Z,13.27
2022-11-19T09:04:17.691Z,13.47
2022-11-19T09:06:45.615Z,12.17
2022-11-19T09:09:14.669Z,12.88
2022-11-19T09:11:43.154Z,13.50
2022-11-19T09:14:11.304Z,16.17
2022-11-19T09:16:38.971Z,13.37
2022-11-19T09:19:06.593Z,13.40
2022-11-19T09:21:34.285Z,13.38
2022-11-19T09:24:01.910Z,14.23
2022-11-19T09:26:31.117Z,14.43
2022-11-19T09:28:58.772Z,13.83
2022-11-19T09:31:26.417Z,16.27
2022-11-19T09:33:55.285Z,14.63
2022-11-19T09:36:23.059Z,14.07
2022-11-19T09:38:50.745Z,13.07
2022-11-19T09:41:36.069Z,14.10
2022-11-19T09:44:19.821Z,11.70
2022-11-19T09:46:59.156Z,11.73
2022-11-19T09:49:31.681Z,13.77
2022-11-19T09:52:08.366Z,12.77
2022-11-19T09:54:40.691Z,15.80
2022-11-19T09:57:14.748Z,13.83
2022-11-19T09:59:43.182Z,13.37
2022-11-19T10:02:18.616Z,13.50
2022-11-19T10:04:48.318Z,14.67
2022-11-19T10:07:27.177Z,13.13
2022-11-19T10:10:11.895Z,12.73
2022-11-19T10:12:56.754Z,13.53
2022-11-19T10:15:36.052Z,13.93
2022-11-19T10:18:14.407Z,11.93
2022-11-19T10:20:55.368Z,10.37
2022-11-19T10:23:30.222Z,12.87
2022-11-19T10:26:03.764Z,11.23
2022-11-19T10:28:38.228Z,10.10
2022-11-19T10:31:09.425Z,12.80
2022-11-19T10:33:43.714Z,12.47
2022-11-19T10:36:18.042Z,12.43
2022-11-19T10:38:53.943Z,13.43
2022-11-19T10:41:31.650Z,13.53
2022-11-19T10:44:08.606Z,12.97
2022-11-19T10:46:36.506Z,13.13
2022-11-19T10:49:05.437Z,11.63
2022-11-19T10:51:40.330Z,12.27
2022-11-19T10:54:22.701Z,12.50
2022-11-19T10:56:51.529Z,13.60
2022-11-19T10:59:23.682Z,13.00
2022-11-19T11:01:55.468Z,11.77
2022-11-19T11:04:24.888Z,12.83
2022-11-19T11:06:54.551Z,11.53
2022-11-19T11:09:33.554Z,13.43
2022-11-19T11:12:28.778Z,14.17
2022-11-19T11:15:00.749Z,16.00
2022-11-19T11:17:30.251Z,14.73
2022-11-19T11:20:00.166Z,16.47
2022-11-19T11:22:28.236Z,14.43
2022-11-19T11:24:56.101Z,13.27
2022-11-19T11:27:28.132Z,15.53
2022-11-19T11:30:15.827Z,12.57
2022-11-19T11:32:44.040Z,12.63
2022-11-19T11:35:29.908Z,12.43
2022-11-19T11:37:58.365Z,12.40
2022-11-19T11:40:26.120Z,12.90
2022-11-19T11:42:54.532Z,12.27
2022-11-19T11:45:30.213Z,11.67
2022-11-19T11:47:59.454Z,12.43
2022-11-19T11:50:29.268Z,12.87
2022-11-19T11:52:58.338Z,11.80
2022-11-19T11:55:33.423Z,13.47
2022-11-19T11:58:02.773Z,11.23
2022-11-19T12:00:38.013Z,11.90
2022-11-19T12:03:07.586Z,12.53
2022-11-19T12:06:01.303Z,11.00
2022-11-19T12:08:45.174Z,10.70
2022-11-19T12:11:21.117Z,12.00
2022-11-19T12:13:55.953Z,9.67
2022-11-19T12:16:39.620Z,9.77
2022-11-19T12:19:19.287Z,10.97
2022-11-19T12:21:57.398Z,8.80
2022-11-19T12:24:42.438Z,11.37
2022-11-19T12:27:20.785Z,12.07
2022-11-19T12:29:57.322Z,13.27
2022-11-19T12:32:44.416Z,11.63
2022-11-19T12:35:28.825Z,12.77
2022-11-19T12:38:26.205Z,11.60
2022-11-19T12:41:04.262Z,13.13
2022-11-19T12:43:51.117Z,13.57
2022-11-19T12:46:29.408Z,13.30
2022-11-19T12:49:33.544Z,12.57
2022-11-19T12:52:15.447Z,12.47
2022-11-19T12:54:55.770Z,12.30
2022-11-19T12:57:38.246Z,12.17
2022-11-19T13:00:13.312Z,12.07
2022-11-19T13:02:51.381Z,13.20
2022-11-19T13:05:23.602Z,13.37
2022-11-19T13:07:56.883Z,12.60
2022-11-19T13:10:27.072Z,14.50
2022-11-19T13:12:59.290Z,14.43
2022-11-19T13:15:32.689Z,15.07
2022-11-19T13:18:04.939Z,13.13
2022-11-19T13:20:41.532Z,15.83
2022-11-19T13:23:16.673Z,16.33
2022-11-19T13:25:48.905Z,16.73
2022-11-19T13:28:23.475Z,14.67
2022-11-19T13:30:54.609Z,13.87
2022-11-19T13:33:26.548Z,16.43
2022-11-19T13:36:03.514Z,19.60
2022-11-19T13:38:43.683Z,22.17
2022-11-19T13:41:16.234Z,15.47
2022-11-19T13:44:02.986Z,15.80
2022-11-19T13:46:36.266Z,14.57
2022-11-19T13:49:08.443Z,15.67
2022-11-19T13:51:41.294Z,15.63
2022-11-19T13:54:10.290Z,11.47
2022-11-19T13:56:41.459Z,11.90
2022-11-19T13:59:25.321Z,12.23
2022-11-19T14:02:24.299Z,11.40
2022-11-19T14:05:10.372Z,11.37
2022-11-19T14:07:54.466Z,12.90
2022-11-19T14:10:27.223Z,13.23
2022-11-19T14:13:14.880Z,11.40
2022-11-19T14:16:15.093Z,11.83
2022-11-19T14:19:04.979Z,12.47
2022-11-19T14:22:08.635Z,13.50
2022-11-19T14:25:15.919Z,13.50
2022-11-19T14:27:44.907Z,14.97
2022-11-19T14:30:18.783Z,11.63
2022-11-19T14:32:52.100Z,12.97
2022-11-19T14:35:29.244Z,16.67
2022-11-19T14:38:02.368Z,13.70
2022-11-19T14:40:34.331Z,14.13
2022-11-19T14:43:46.388Z,14.60
2022-11-19T14:46:28.079Z,13.33
2022-11-19T14:49:05.854Z,14.37
2022-11-19T14:51:39.014Z,15.07
2022-11-19T14:54:19.806Z,15.67
2022-11-19T14:57:00.280Z,17.67
2022-11-19T14:59:32.402Z,20.70
2022-11-19T15:02:03.045Z,22.43
2022-11-19T15:04:36.195Z,16.37
2022-11-19T15:07:10.798Z,16.90
2022-11-19T15:10:04.375Z,15.60
2022-11-19T15:12:48.050Z,16.97
2022-11-19T15:15:35.141Z,18.07
2022-11-19T15:18:16.104Z,15.50
2022-11-19T15:21:06.241Z,17.10
2022-11-19T15:23:37.936Z,19.47
2022-11-19T15:26:17.513Z,19.97
2022-11-19T15:29:00.721Z,16.17
2022-11-19T15:31:44.268Z,17.63
2022-11-19T15:34:49.283Z,16.80
2022-11-19T15:37:28.526Z,16.87
2022-11-19T15:39:58.698Z,18.67
2022-11-19T15:42:33.181Z,19.43
2022-11-19T15:45:09.307Z,19.50
2022-11-19T15:47:43.490Z,21.33
2022-11-19T15:50:18.184Z,17.87
2022-11-19T15:52:59.161Z,19.13
2022-11-19T15:55:29.045Z,18.27
2022-11-19T15:58:00.632Z,20.60
2022-11-19T16:00:30.016Z,19.13
2022-11-19T16:02:57.784Z,17.17
2022-11-19T16:05:28.115Z,17.30
2022-11-19T16:07:59.755Z,17.40
2022-11-19T16:10:30.920Z,17.63
2022-11-19T16:13:17.823Z,19.17
2022-11-19T16:16:09.462Z,19.30
2022-11-19T16:18:46.726Z,18.53
2022-11-19T16:21:18.709Z,19.47
2022-11-19T16:24:00.523Z,18.53
2022-11-19T16:26:28.674Z,21.10
2022-11-19T16:28:56.613Z,20.50
2022-11-19T16:31:30.576Z,20.23
2022-11-19T16:33:58.802Z,18.80
2022-11-19T16:36:29.855Z,22.47
2022-11-19T16:38:59.162Z,20.50
2022-11-19T16:41:45.111Z,22.13
2022-11-19T16:44:16.753Z,21.07
2022-11-19T16:46:46.133Z,21.57
2022-11-19T16:49:30.653Z,20.20
2022-11-19T16:51:58.978Z,20.40
2022-11-19T16:54:48.031Z,22.20
2022-11-19T16:57:19.200Z,22.27
2022-11-19T16:59:50.777Z,23.80
2022-11-19T17:02:22.174Z,22.47
2022-11-19T17:04:53.654Z,24.33
2022-11-19T17:07:27.298Z,24.93
2022-11-19T17:10:27.202Z,22.20
2022-11-19T17:12:57.656Z,25.00
2022-11-19T17:15:38.484Z,23.47
2022-11-19T17:18:17.414Z,22.33
2022-11-19T17:20:56.250Z,25.07
2022-11-19T17:23:25.601Z,31.33
2022-11-19T17:25:56.275Z,33.90
2022-11-19T17:28:31.148Z,35.97
2022-11-19T17:31:00.874Z,27.23
2022-11-19T17:33:35.336Z,23.97
2022-11-19T17:36:05.637Z,24.00
2022-11-19T17:38:33.615Z,24.63
2022-11-19T17:41:04.879Z,26.07
2022-11-19T17:43:52.692Z,28.60
2022-11-19T17:46:21.438Z,26.77
2022-11-19T17:48:51.835Z,28.13
2022-11-19T17:51:22.382Z,29.67
2022-11-19T17:53:51.285Z,26.80
2022-11-19T17:56:20.661Z,24.63
2022-11-19T17:58:48.698Z,26.63
2022-11-19T18:01:17.283Z,28.00
2022-11-19T18:03:45.335Z,27.37
2022-11-19T18:06:16.075Z,27.07
2022-11-19T18:08:44.087Z,26.50
2022-11-19T18:11:13.669Z,25.87
2022-11-19T18:13:43.095Z,25.10
2022-11-19T18:16:15.257Z,28.70
2022-11-19T18:18:43.329Z,26.80
2022-11-19T18:21:12.429Z,28.80
2022-11-19T18:23:41.922Z,28.37
2022-11-19T18:26:11.101Z,25.70
2022-11-19T18:28:38.794Z,28.03
2022-11-19T18:31:07.550Z,28.07
2022-11-19T18:33:36.674Z,28.27
2022-11-19T18:36:05.694Z,27.60
2022-11-19T18:38:33.999Z,26.93
2022-11-19T18:41:03.947Z,28.30
2022-11-19T18:43:49.334Z,26.30
2022-11-19T18:46:17.688Z,25.53
2022-11-19T18:48:45.695Z,26.13
2022-11-19T18:51:14.023Z,25.53
2022-11-19T18:53:42.904Z,28.03
2022-11-19T18:56:18.550Z,27.00
2022-11-19T18:58:46.486Z,29.40
2022-11-19T19:01:16.204Z,27.13
2022-11-19T19:03:44.660Z,28.67
2022-11-19T19:06:13.527Z,31.23
2022-11-19T19:08:41.540Z,27.00
2022-11-19T19:11:30.805Z,27.17
2022-11-19T19:14:03.213Z,27.77
2022-11-19T19:16:32.067Z,28.47
2022-11-19T19:18:59.842Z,30.20
2022-11-19T19:21:28.152Z,32.37
2022-11-19T19:23:56.300Z,30.27
2022-11-19T19:26:25.585Z,30.37
2022-11-19T19:28:55.128Z,29.93
2022-11-19T19:31:25.611Z,32.80
2022-11-19T19:33:54.302Z,31.63
2022-11-19T19:36:22.865Z,32.63
2022-11-19T19:38:50.682Z,34.03
2022-11-19T19:41:21.119Z,32.83
2022-11-19T19:43:49.302Z,32.10
2022-11-19T19:46:19.118Z,35.00
2022-11-19T19:48:49.836Z,33.93
2022-11-19T19:51:18.910Z,30.47
2022-11-19T19:53:47.294Z,34.70
2022-11-19T19:56:17.559Z,29.53
2022-11-19T19:58:46.304Z,33.00
2022-11-19T20:01:16.369Z,31.73
2022-11-19T20:03:45.124Z,30.50
2022-11-19T20:06:17.086Z,30.53
2022-11-19T20:08:45.152Z,30.63
2022-11-19T20:11:16.327Z,30.37
2022-11-19T20:13:44.840Z,32.37
2022-11-19T20:16:17.914Z,28.83
2022-11-19T20:18:47.665Z,33.53
2022-11-19T20:21:19.290Z,30.80
2022-11-19T20:23:47.521Z,34.53
2022-11-19T20:26:17.154Z,28.33
2022-11-19T20:28:45.926Z,28.67
2022-11-19T20:31:15.569Z,27.13
2022-11-19T20:33:44.701Z,31.70
2022-11-19T20:36:14.474Z,29.30
2022-11-19T20:38:46.009Z,30.57
2022-11-19T20:41:29.882Z,29.33
2022-11-19T20:44:15.735Z,30.77
2022-11-19T20:46:43.825Z,27.47
2022-11-19T20:49:16.851Z,27.43
2022-11-19T20:51:45.876Z,29.67
2022-11-19T20:54:15.538Z,29.10
2022-11-19T20:56:43.689Z,28.10
2022-11-19T20:59:12.896Z,26.70
2022-11-19T21:01:41.367Z,26.67
2022-11-19T21:04:09.588Z,27.53
2022-11-19T21:06:37.367Z,27.70
2022-11-19T21:09:05.536Z,28.17
2022-11-19T21:11:35.396Z,27.63
2022-11-19T21:14:04.404Z,30.83
2022-11-19T21:16:33.352Z,30.50
2022-11-19T21:19:01.760Z,32.40
2022-11-19T21:21:29.737Z,30.50
2022-11-19T21:23:57.515Z,35.00
2022-11-19T21:26:27.550Z,28.53
2022-11-19T21:28:57.880Z,28.23
2022-11-19T21:31:38.823Z,29.67
2022-11-19T21:34:07.647Z,32.70
2022-11-19T21:36:36.373Z,31.30
2022-11-19T21:39:04.978Z,30.87
2022-11-19T21:41:33.251Z,31.47
2022-11-19T21:44:03.158Z,32.63
2022-11-19T21:46:31.158Z,28.20
2022-11-19T21:48:59.196Z,27.87
2022-11-19T21:51:27.077Z,28.43
2022-11-19T21:53:56.043Z,30.07
2022-11-19T21:56:24.639Z,28.13
2022-11-19T21:58:52.778Z,28.27
2022-11-19T22:01:22.184Z,28.20
2022-11-19T22:03:50.019Z,29.33
2022-11-19T22:06:17.962Z,29.90
2022-11-19T22:08:45.724Z,28.43
2022-11-19T22:11:32.445Z,30.90
2022-11-19T22:14:03.542Z,27.60
2022-11-19T22:16:35.119Z,31.27
2022-11-19T22:19:03.471Z,32.47
2022-11-19T22:21:31.395Z,32.17
2022-11-19T22:23:59.516Z,30.90
2022-11-19T22:26:28.150Z,31.03
2022-11-19T22:28:56.167Z,31.93
2022-11-19T22:31:24.411Z,29.00
2022-11-19T22:33:54.895Z,30.47
2022-11-19T22:36:24.175Z,33.00
2022-11-19T22:38:52.960Z,36.07
2022-11-19T22:41:22.525Z,31.07
2022-11-19T22:43:50.712Z,34.30
2022-11-19T22:46:20.213Z,30.63
2022-11-19T22:48:48.545Z,28.90
2022-11-19T22:51:20.034Z,31.17
2022-11-19T22:53:48.892Z,29.80
2022-11-19T22:56:19.084Z,34.93
2022-11-19T22:58:46.994Z,30.90
2022-11-19T23:01:18.079Z,30.07
2022-11-19T23:03:46.349Z,33.57
2022-11-19T23:06:14.609Z,31.60
2022-11-19T23:08:44.141Z,32.83
2022-11-19T23:11:13.134Z,33.87
2022-11-19T23:13:41.698Z,35.10
2022-11-19T23:16:11.458Z,32.53
2022-11-19T23:18:40.727Z,32.47
2022-11-19T23:21:10.191Z,31.93
2022-11-19T23:23:38.894Z,32.37
2022-11-19T23:26:10.025Z,31.93
2022-11-19T23:28:38.941Z,32.47
2022-11-19T23:31:07.961Z,34.23
2022-11-19T23:33:35.886Z,30.13
2022-11-19T23:36:04.961Z,33.20
2022-11-19T23:38:32.665Z,35.87
2022-11-19T23:41:01.349Z,33.63
2022-11-19T23:43:30.904Z,34.83
2022-11-19T23:46:04.529Z,34.47
2022-11-19T23:48:32.379Z,34.93
2022-11-19T23:51:01.933Z,34.60
2022-11-19T23:53:29.768Z,34.30
2022-11-19T23:55:57.746Z,34.10
2022-11-19T23:58:25.564Z,32.60
